createdAt,value
2023-08-15T00:00:07.657Z,23.44
2023-08-15T00:00:23.738Z,23.44
2023-08-15T00:00:39.898Z,23.45
2023-08-15T00:00:56.109Z,23.46
2023-08-15T00:01:12.249Z,23.47
2023-08-15T00:01:28.364Z,23.48
2023-08-15T00:01:44.482Z,23.48
2023-08-15T00:02:00.668Z,23.47
2023-08-15T00:02:16.817Z,23.47
2023-08-15T00:02:32.998Z,23.48
2023-08-15T00:02:49.142Z,23.48
2023-08-15T00:03:05.302Z,23.47
2023-08-15T00:03:21.493Z,23.45
2023-08-15T00:03:37.575Z,23.44
2023-08-15T00:03:53.691Z,23.44
2023-08-15T00:04:09.803Z,23.44
2023-08-15T00:04:25.931Z,23.44
2023-08-15T00:04:42.073Z,23.44
2023-08-15T00:04:58.231Z,23.45
2023-08-15T00:05:14.380Z,23.46
2023-08-15T00:05:30.538Z,23.47
2023-08-15T00:05:46.681Z,23.48
2023-08-15T00:06:02.874Z,23.49
2023-08-15T00:06:18.960Z,23.5
2023-08-15T00:06:35.109Z,23.51
2023-08-15T00:06:51.264Z,23.51
2023-08-15T00:07:07.407Z,23.51
2023-08-15T00:07:23.554Z,23.51
2023-08-15T00:07:39.695Z,23.52
2023-08-15T00:07:55.852Z,23.51
2023-08-15T00:08:23.276Z,23.52
2023-08-15T00:08:39.416Z,23.53
2023-08-15T00:08:55.653Z,23.52
2023-08-15T00:09:11.743Z,23.53
2023-08-15T00:09:27.845Z,23.53
2023-08-15T00:09:44.002Z,23.54
2023-08-15T00:10:00.206Z,23.56
2023-08-15T00:10:16.287Z,23.56
2023-08-15T00:10:32.428Z,23.57
2023-08-15T00:10:48.619Z,23.58
2023-08-15T00:11:04.732Z,23.58
2023-08-15T00:11:20.881Z,23.59
2023-08-15T00:11:37.021Z,23.59
2023-08-15T00:11:53.159Z,23.59
2023-08-15T00:12:09.301Z,23.58
2023-08-15T00:12:25.429Z,23.58
2023-08-15T00:12:41.637Z,23.57
2023-08-15T00:12:57.728Z,23.55
2023-08-15T00:13:13.887Z,23.54
2023-08-15T00:13:30.042Z,23.53
2023-08-15T00:13:46.203Z,23.52
2023-08-15T00:14:02.398Z,23.51
2023-08-15T00:14:18.509Z,23.52
2023-08-15T00:14:34.633Z,23.51
2023-08-15T00:14:50.797Z,23.51
2023-08-15T00:15:06.901Z,23.51
2023-08-15T00:15:23.053Z,23.5
2023-08-15T00:15:39.239Z,23.5
2023-08-15T00:15:55.330Z,23.5
2023-08-15T00:16:11.518Z,23.49
2023-08-15T00:16:27.723Z,23.5
2023-08-15T00:16:43.819Z,23.5
2023-08-15T00:16:59.995Z,23.5
2023-08-15T00:17:16.135Z,23.5
2023-08-15T00:17:32.227Z,23.5
2023-08-15T00:17:48.365Z,23.49
2023-08-15T00:18:04.543Z,23.49
2023-08-15T00:18:20.665Z,23.5
2023-08-15T00:18:36.810Z,23.49
2023-08-15T00:18:52.972Z,23.45
2023-08-15T00:19:09.080Z,23.43
2023-08-15T00:19:25.268Z,23.41
2023-08-15T00:19:41.358Z,23.38
2023-08-15T00:19:57.716Z,23.37
2023-08-15T00:20:13.656Z,23.35
2023-08-15T00:20:29.824Z,23.33
2023-08-15T00:20:45.955Z,23.35
2023-08-15T00:21:02.151Z,23.34
2023-08-15T00:21:18.249Z,23.34
2023-08-15T00:21:34.403Z,23.33
2023-08-15T00:21:50.576Z,23.32
2023-08-15T00:22:06.683Z,23.32
2023-08-15T00:22:22.866Z,23.32
2023-08-15T00:22:39.029Z,23.32
2023-08-15T00:22:55.118Z,23.32
2023-08-15T00:23:11.266Z,23.33
2023-08-15T00:23:27.437Z,23.33
2023-08-15T00:23:43.568Z,23.33
2023-08-15T00:23:59.677Z,23.34
2023-08-15T00:24:15.851Z,23.35
2023-08-15T00:24:31.993Z,23.35
2023-08-15T00:24:48.165Z,23.34
2023-08-15T00:25:04.284Z,23.3
2023-08-15T00:25:20.432Z,23.29
2023-08-15T00:25:36.616Z,23.29
2023-08-15T00:25:52.757Z,23.27
2023-08-15T00:26:08.879Z,23.27
2023-08-15T00:26:25.017Z,23.27
2023-08-15T00:26:41.155Z,23.26
2023-08-15T00:26:57.316Z,23.25
2023-08-15T00:27:13.506Z,23.25
2023-08-15T00:27:29.603Z,23.26
2023-08-15T00:27:45.758Z,23.27
2023-08-15T00:28:01.875Z,23.29
2023-08-15T00:28:18.054Z,23.3
2023-08-15T00:28:34.185Z,23.3
2023-08-15T00:28:50.319Z,23.29
2023-08-15T00:29:06.501Z,23.29
2023-08-15T00:29:22.616Z,23.29
2023-08-15T00:29:38.765Z,23.28
2023-08-15T00:29:54.896Z,23.29
2023-08-15T00:30:11.087Z,23.29
2023-08-15T00:30:27.230Z,23.28
2023-08-15T00:30:43.352Z,23.28
2023-08-15T00:30:59.508Z,23.27
2023-08-15T00:31:15.660Z,23.25
2023-08-15T00:31:31.785Z,23.25
2023-08-15T00:31:47.966Z,23.2
2023-08-15T00:32:04.114Z,23.21
2023-08-15T00:32:20.214Z,23.22
2023-08-15T00:32:36.390Z,23.21
2023-08-15T00:32:52.570Z,23.19
2023-08-15T00:33:08.729Z,23.18
2023-08-15T00:33:24.796Z,23.18
2023-08-15T00:33:40.964Z,23.16
2023-08-15T00:33:57.113Z,23.15
2023-08-15T00:34:13.235Z,23.07
2023-08-15T00:34:29.398Z,23.07
2023-08-15T00:34:45.564Z,22.98
2023-08-15T00:35:01.702Z,22.95
2023-08-15T00:35:17.828Z,22.95
2023-08-15T00:35:33.986Z,22.95
2023-08-15T00:35:50.093Z,22.96
2023-08-15T00:36:06.265Z,22.98
2023-08-15T00:36:22.414Z,22.98
2023-08-15T00:36:38.530Z,22.97
2023-08-15T00:36:54.702Z,22.98
2023-08-15T00:37:10.844Z,23
2023-08-15T00:37:26.972Z,23.01
2023-08-15T00:37:43.138Z,23.02
2023-08-15T00:37:59.270Z,23.02
2023-08-15T00:38:15.438Z,23.04
2023-08-15T00:38:31.564Z,23.06
2023-08-15T00:38:47.700Z,23.08
2023-08-15T00:39:04.085Z,23.1
2023-08-15T00:39:19.976Z,23.11
2023-08-15T00:39:36.206Z,23.12
2023-08-15T00:39:52.282Z,23.12
2023-08-15T00:40:08.455Z,23.12
2023-08-15T00:40:24.582Z,23.12
2023-08-15T00:40:40.724Z,23.1
2023-08-15T00:40:56.890Z,23.09
2023-08-15T00:41:13.039Z,23.08
2023-08-15T00:41:29.153Z,23.02
2023-08-15T00:41:45.298Z,23.03
2023-08-15T00:42:01.461Z,23.03
2023-08-15T00:42:17.599Z,22.99
2023-08-15T00:42:33.765Z,22.95
2023-08-15T00:42:49.921Z,22.96
2023-08-15T00:43:06.048Z,22.97
2023-08-15T00:43:22.196Z,22.96
2023-08-15T00:43:38.332Z,22.98
2023-08-15T00:43:54.490Z,22.98
2023-08-15T00:44:10.647Z,22.99
2023-08-15T00:44:26.794Z,23
2023-08-15T00:44:42.926Z,23.01
2023-08-15T00:44:59.122Z,23.03
2023-08-15T00:45:15.199Z,23.04
2023-08-15T00:45:31.341Z,23.07
2023-08-15T00:45:47.473Z,23.08
2023-08-15T00:46:03.729Z,23.1
2023-08-15T00:46:19.888Z,23.11
2023-08-15T00:46:35.964Z,23.12
2023-08-15T00:46:52.079Z,23.13
2023-08-15T00:47:08.213Z,23.14
2023-08-15T00:47:24.401Z,23.15
2023-08-15T00:47:40.587Z,23.15
2023-08-15T00:47:56.707Z,23.15
2023-08-15T00:48:12.838Z,23.15
2023-08-15T00:48:28.952Z,23.16
2023-08-15T00:48:45.090Z,23.18
2023-08-15T00:49:01.287Z,23.19
2023-08-15T00:49:17.380Z,23.2
2023-08-15T00:49:33.525Z,23.2
2023-08-15T00:49:49.687Z,23.21
2023-08-15T00:50:05.826Z,23.22
2023-08-15T00:50:21.993Z,23.22
2023-08-15T00:50:38.118Z,23.23
2023-08-15T00:50:54.259Z,23.22
2023-08-15T00:51:10.391Z,23.23
2023-08-15T00:51:26.568Z,23.24
2023-08-15T00:51:42.692Z,23.25
2023-08-15T00:51:58.844Z,23.25
2023-08-15T00:52:14.997Z,23.26
2023-08-15T00:52:31.129Z,23.26
2023-08-15T00:52:47.292Z,23.26
2023-08-15T00:53:03.415Z,23.26
2023-08-15T00:53:19.586Z,23.27
2023-08-15T00:53:35.718Z,23.27
2023-08-15T00:53:51.861Z,23.27
2023-08-15T00:54:08.011Z,23.27
2023-08-15T00:54:24.174Z,23.26
2023-08-15T00:54:40.290Z,23.26
2023-08-15T00:54:56.466Z,23.12
2023-08-15T00:55:12.593Z,23.12
2023-08-15T00:55:28.740Z,23.09
2023-08-15T00:55:44.888Z,23.07
2023-08-15T00:56:01.072Z,23.05
2023-08-15T00:56:17.177Z,23.01
2023-08-15T00:56:33.318Z,23.01
2023-08-15T00:56:49.471Z,23.01
2023-08-15T00:57:05.646Z,23
2023-08-15T00:57:22.104Z,22.98
2023-08-15T00:57:37.888Z,22.97
2023-08-15T00:57:54.037Z,22.98
2023-08-15T00:58:10.197Z,22.98
2023-08-15T00:58:26.341Z,22.98
2023-08-15T00:58:42.480Z,22.97
2023-08-15T00:58:58.777Z,22.97
2023-08-15T00:59:14.763Z,22.99
2023-08-15T00:59:30.953Z,22.99
2023-08-15T00:59:47.073Z,22.99
2023-08-15T01:00:03.996Z,22.94
2023-08-15T01:00:19.424Z,22.94
2023-08-15T01:00:35.988Z,22.95
2023-08-15T01:00:51.659Z,22.95
2023-08-15T01:01:07.831Z,22.95
2023-08-15T01:01:23.980Z,22.96
2023-08-15T01:01:40.115Z,22.97
2023-08-15T01:01:56.311Z,22.98
2023-08-15T01:02:23.745Z,22.99
2023-08-15T01:02:39.881Z,22.99
2023-08-15T01:02:56.118Z,22.99
2023-08-15T01:03:12.281Z,22.98
2023-08-15T01:03:28.321Z,22.93
2023-08-15T01:03:44.512Z,22.94
2023-08-15T01:04:00.601Z,22.95
2023-08-15T01:04:16.666Z,22.95
2023-08-15T01:04:32.861Z,22.96
2023-08-15T01:04:48.962Z,22.98
2023-08-15T01:05:05.103Z,22.99
2023-08-15T01:05:21.255Z,23
2023-08-15T01:05:37.385Z,22.94
2023-08-15T01:05:53.534Z,22.97
2023-08-15T01:06:09.679Z,22.97
2023-08-15T01:06:25.854Z,22.96
2023-08-15T01:06:41.987Z,22.98
2023-08-15T01:06:58.132Z,22.98
2023-08-15T01:07:14.287Z,22.98
2023-08-15T01:07:30.449Z,22.98
2023-08-15T01:07:46.566Z,22.97
2023-08-15T01:08:02.720Z,22.93
2023-08-15T01:08:18.888Z,22.88
2023-08-15T01:08:34.993Z,22.86
2023-08-15T01:08:51.148Z,22.89
2023-08-15T01:09:07.295Z,22.9
2023-08-15T01:09:23.430Z,22.91
2023-08-15T01:09:39.573Z,22.92
2023-08-15T01:09:55.782Z,22.93
2023-08-15T01:10:11.910Z,22.94
2023-08-15T01:10:28.011Z,22.95
2023-08-15T01:10:44.171Z,22.96
2023-08-15T01:11:00.325Z,22.97
2023-08-15T01:11:16.464Z,22.98
2023-08-15T01:11:32.596Z,22.96
2023-08-15T01:11:48.800Z,22.94
2023-08-15T01:12:04.878Z,22.94
2023-08-15T01:12:21.047Z,22.92
2023-08-15T01:12:37.222Z,22.92
2023-08-15T01:12:53.337Z,22.93
2023-08-15T01:13:09.490Z,22.93
2023-08-15T01:13:25.637Z,22.94
2023-08-15T01:13:41.787Z,22.92
2023-08-15T01:13:57.909Z,22.92
2023-08-15T01:14:14.064Z,22.93
2023-08-15T01:14:30.195Z,22.93
2023-08-15T01:14:46.351Z,22.94
2023-08-15T01:15:02.494Z,22.95
2023-08-15T01:15:18.650Z,22.95
2023-08-15T01:15:34.791Z,22.94
2023-08-15T01:15:50.978Z,22.94
2023-08-15T01:16:07.107Z,22.94
2023-08-15T01:16:23.242Z,22.95
2023-08-15T01:16:39.444Z,22.96
2023-08-15T01:16:55.515Z,22.97
2023-08-15T01:17:11.662Z,22.97
2023-08-15T01:17:27.843Z,22.99
2023-08-15T01:17:43.953Z,22.99
2023-08-15T01:18:00.203Z,23
2023-08-15T01:18:16.244Z,23.01
2023-08-15T01:18:32.411Z,23.02
2023-08-15T01:18:48.551Z,23.03
2023-08-15T01:19:04.689Z,23.04
2023-08-15T01:19:20.833Z,23.06
2023-08-15T01:19:36.983Z,23.07
2023-08-15T01:19:53.118Z,23.08
2023-08-15T01:20:09.281Z,23.09
2023-08-15T01:20:25.393Z,23.09
2023-08-15T01:20:41.540Z,23.08
2023-08-15T01:20:57.743Z,23.05
2023-08-15T01:21:13.828Z,23.04
2023-08-15T01:21:30.040Z,23.04
2023-08-15T01:21:46.181Z,23.03
2023-08-15T01:22:02.295Z,23.03
2023-08-15T01:22:18.436Z,23.05
2023-08-15T01:22:34.598Z,23.04
2023-08-15T01:22:50.718Z,23.04
2023-08-15T01:23:06.882Z,23.05
2023-08-15T01:23:23.001Z,23.06
2023-08-15T01:23:39.131Z,23.07
2023-08-15T01:23:55.340Z,23.07
2023-08-15T01:24:11.454Z,23.06
2023-08-15T01:24:27.625Z,23.06
2023-08-15T01:24:43.758Z,23.05
2023-08-15T01:24:59.901Z,23.04
2023-08-15T01:25:16.024Z,23.03
2023-08-15T01:25:32.187Z,23.03
2023-08-15T01:25:48.317Z,23
2023-08-15T01:26:04.467Z,23
2023-08-15T01:26:20.614Z,23.01
2023-08-15T01:26:36.775Z,23
2023-08-15T01:26:52.897Z,22.99
2023-08-15T01:27:09.071Z,22.97
2023-08-15T01:27:25.196Z,22.98
2023-08-15T01:27:41.326Z,22.99
2023-08-15T01:27:57.510Z,22.99
2023-08-15T01:28:13.629Z,23
2023-08-15T01:28:29.761Z,22.98
2023-08-15T01:28:45.900Z,22.98
2023-08-15T01:29:02.095Z,22.97
2023-08-15T01:29:18.230Z,22.98
2023-08-15T01:29:34.358Z,22.98
2023-08-15T01:29:50.616Z,22.98
2023-08-15T01:30:06.635Z,22.96
2023-08-15T01:30:22.801Z,22.97
2023-08-15T01:30:38.951Z,22.96
2023-08-15T01:30:55.075Z,22.97
2023-08-15T01:31:11.325Z,22.94
2023-08-15T01:31:27.391Z,22.93
2023-08-15T01:31:43.583Z,22.92
2023-08-15T01:31:59.790Z,22.91
2023-08-15T01:32:15.939Z,22.87
2023-08-15T01:32:32.011Z,22.81
2023-08-15T01:32:48.166Z,22.81
2023-08-15T01:33:04.313Z,22.81
2023-08-15T01:33:20.405Z,22.81
2023-08-15T01:33:36.531Z,22.82
2023-08-15T01:33:52.731Z,22.81
2023-08-15T01:34:08.834Z,22.79
2023-08-15T01:34:24.966Z,22.79
2023-08-15T01:34:41.131Z,22.78
2023-08-15T01:34:57.308Z,22.77
2023-08-15T01:35:13.413Z,22.79
2023-08-15T01:35:29.575Z,22.8
2023-08-15T01:35:45.701Z,22.81
2023-08-15T01:36:02.009Z,22.82
2023-08-15T01:36:18.012Z,22.84
2023-08-15T01:36:34.172Z,22.85
2023-08-15T01:36:50.345Z,22.86
2023-08-15T01:37:06.431Z,22.86
2023-08-15T01:37:23.012Z,22.84
2023-08-15T01:37:38.742Z,22.83
2023-08-15T01:37:54.870Z,22.84
2023-08-15T01:38:11.056Z,22.82
2023-08-15T01:38:27.158Z,22.82
2023-08-15T01:38:43.309Z,22.83
2023-08-15T01:38:59.476Z,22.84
2023-08-15T01:39:15.614Z,22.84
2023-08-15T01:39:31.734Z,22.85
2023-08-15T01:39:47.880Z,22.86
2023-08-15T01:40:04.048Z,22.86
2023-08-15T01:40:20.241Z,22.87
2023-08-15T01:40:36.371Z,22.88
2023-08-15T01:40:52.496Z,22.87
2023-08-15T01:41:08.656Z,22.87
2023-08-15T01:41:24.774Z,22.86
2023-08-15T01:41:40.893Z,22.87
2023-08-15T01:41:57.052Z,22.87
2023-08-15T01:42:13.227Z,22.87
2023-08-15T01:42:29.356Z,22.87
2023-08-15T01:42:45.480Z,22.87
2023-08-15T01:43:01.654Z,22.86
2023-08-15T01:43:17.804Z,22.84
2023-08-15T01:43:33.940Z,22.85
2023-08-15T01:43:50.064Z,22.85
2023-08-15T01:44:06.238Z,22.84
2023-08-15T01:44:22.359Z,22.84
2023-08-15T01:44:38.499Z,22.83
2023-08-15T01:44:54.651Z,22.79
2023-08-15T01:45:10.814Z,22.76
2023-08-15T01:45:26.955Z,22.77
2023-08-15T01:45:43.140Z,22.78
2023-08-15T01:45:59.262Z,22.78
2023-08-15T01:46:15.397Z,22.78
2023-08-15T01:46:31.557Z,22.78
2023-08-15T01:46:47.684Z,22.78
2023-08-15T01:47:03.805Z,22.77
2023-08-15T01:47:20.204Z,22.77
2023-08-15T01:47:36.138Z,22.77
2023-08-15T01:47:52.387Z,22.77
2023-08-15T01:48:08.459Z,22.77
2023-08-15T01:48:24.560Z,22.77
2023-08-15T01:48:40.690Z,22.78
2023-08-15T01:48:56.822Z,22.76
2023-08-15T01:49:12.966Z,22.73
2023-08-15T01:49:29.167Z,22.71
2023-08-15T01:49:45.290Z,22.66
2023-08-15T01:50:01.427Z,22.65
2023-08-15T01:50:17.569Z,22.64
2023-08-15T01:50:33.732Z,22.64
2023-08-15T01:50:49.864Z,22.63
2023-08-15T01:51:06.018Z,22.63
2023-08-15T01:51:22.173Z,22.61
2023-08-15T01:51:38.284Z,22.59
2023-08-15T01:51:54.497Z,22.59
2023-08-15T01:52:10.624Z,22.58
2023-08-15T01:52:26.775Z,22.6
2023-08-15T01:52:42.877Z,22.6
2023-08-15T01:52:59.032Z,22.61
2023-08-15T01:53:15.198Z,22.62
2023-08-15T01:53:31.296Z,22.61
2023-08-15T01:53:47.487Z,22.61
2023-08-15T01:54:03.600Z,22.62
2023-08-15T01:54:19.773Z,22.62
2023-08-15T01:54:35.900Z,22.63
2023-08-15T01:54:52.046Z,22.62
2023-08-15T01:55:08.207Z,22.61
2023-08-15T01:55:24.349Z,22.61
2023-08-15T01:55:40.464Z,22.59
2023-08-15T01:55:56.651Z,22.59
2023-08-15T01:56:24.076Z,22.58
2023-08-15T01:56:40.193Z,22.52
2023-08-15T01:56:56.367Z,22.51
2023-08-15T01:57:12.467Z,22.48
2023-08-15T01:57:28.653Z,22.48
2023-08-15T01:57:44.820Z,22.48
2023-08-15T01:58:00.936Z,22.46
2023-08-15T01:58:17.074Z,22.46
2023-08-15T01:58:33.235Z,22.47
2023-08-15T01:58:49.365Z,22.48
2023-08-15T01:59:05.499Z,22.49
2023-08-15T01:59:21.642Z,22.46
2023-08-15T01:59:37.794Z,22.43
2023-08-15T01:59:53.944Z,22.41
2023-08-15T02:00:10.103Z,22.4
2023-08-15T02:00:26.263Z,22.38
2023-08-15T02:00:42.380Z,22.38
2023-08-15T02:00:58.550Z,22.33
2023-08-15T02:01:14.682Z,22.36
2023-08-15T02:01:30.877Z,22.37
2023-08-15T02:01:47.036Z,22.37
2023-08-15T02:02:03.119Z,22.36
2023-08-15T02:02:19.246Z,22.36
2023-08-15T02:02:35.482Z,22.34
2023-08-15T02:02:51.585Z,22.33
2023-08-15T02:03:07.739Z,22.34
2023-08-15T02:03:23.829Z,22.34
2023-08-15T02:03:39.979Z,22.32
2023-08-15T02:03:56.164Z,22.34
2023-08-15T02:04:12.287Z,22.31
2023-08-15T02:04:28.429Z,22.31
2023-08-15T02:04:44.580Z,22.33
2023-08-15T02:05:00.731Z,22.32
2023-08-15T02:05:16.926Z,22.32
2023-08-15T02:05:35.632Z,22.33
2023-08-15T02:05:49.180Z,22.34
2023-08-15T02:06:05.300Z,22.32
2023-08-15T02:06:21.440Z,22.34
2023-08-15T02:06:37.593Z,22.36
2023-08-15T02:06:53.728Z,22.35
2023-08-15T02:07:09.851Z,22.34
2023-08-15T02:07:26.040Z,22.34
2023-08-15T02:07:42.188Z,22.34
2023-08-15T02:07:58.357Z,22.36
2023-08-15T02:08:14.482Z,22.38
2023-08-15T02:08:30.627Z,22.38
2023-08-15T02:08:46.740Z,22.36
2023-08-15T02:09:02.896Z,22.38
2023-08-15T02:09:19.035Z,22.39
2023-08-15T02:09:35.192Z,22.39
2023-08-15T02:09:51.329Z,22.41
2023-08-15T02:10:07.481Z,22.42
2023-08-15T02:10:23.615Z,22.43
2023-08-15T02:10:39.815Z,22.45
2023-08-15T02:10:55.959Z,22.47
2023-08-15T02:11:12.075Z,22.48
2023-08-15T02:11:28.204Z,22.49
2023-08-15T02:11:44.379Z,22.51
2023-08-15T02:12:00.497Z,22.52
2023-08-15T02:12:16.629Z,22.52
2023-08-15T02:12:32.790Z,22.53
2023-08-15T02:12:48.929Z,22.54
2023-08-15T02:13:05.074Z,22.56
2023-08-15T02:13:21.215Z,22.56
2023-08-15T02:13:37.401Z,22.53
2023-08-15T02:13:53.515Z,22.52
2023-08-15T02:14:09.682Z,22.52
2023-08-15T02:14:25.804Z,22.52
2023-08-15T02:14:41.980Z,22.52
2023-08-15T02:14:58.117Z,22.52
2023-08-15T02:15:14.228Z,22.52
2023-08-15T02:15:30.414Z,22.52
2023-08-15T02:15:46.574Z,22.51
2023-08-15T02:16:02.759Z,22.49
2023-08-15T02:16:18.905Z,22.49
2023-08-15T02:16:34.998Z,22.49
2023-08-15T02:16:51.116Z,22.49
2023-08-15T02:17:07.258Z,22.49
2023-08-15T02:17:23.604Z,22.49
2023-08-15T02:17:39.542Z,22.5
2023-08-15T02:17:55.852Z,22.51
2023-08-15T02:18:11.883Z,22.53
2023-08-15T02:18:28.020Z,22.54
2023-08-15T02:18:44.188Z,22.55
2023-08-15T02:19:00.288Z,22.57
2023-08-15T02:19:16.404Z,22.58
2023-08-15T02:19:32.574Z,22.59
2023-08-15T02:19:48.718Z,22.58
2023-08-15T02:20:04.860Z,22.58
2023-08-15T02:20:21.034Z,22.58
2023-08-15T02:20:37.137Z,22.59
2023-08-15T02:20:53.302Z,22.59
2023-08-15T02:21:09.430Z,22.54
2023-08-15T02:21:25.584Z,22.55
2023-08-15T02:21:41.792Z,22.52
2023-08-15T02:21:57.907Z,22.52
2023-08-15T02:22:14.058Z,22.52
2023-08-15T02:22:30.181Z,22.52
2023-08-15T02:22:46.315Z,22.52
2023-08-15T02:23:02.466Z,22.53
2023-08-15T02:23:18.601Z,22.53
2023-08-15T02:23:34.776Z,22.54
2023-08-15T02:23:50.880Z,22.54
2023-08-15T02:24:07.058Z,22.49
2023-08-15T02:24:23.239Z,22.48
2023-08-15T02:24:39.339Z,22.48
2023-08-15T02:24:55.457Z,22.48
2023-08-15T02:25:11.616Z,22.48
2023-08-15T02:25:27.811Z,22.49
2023-08-15T02:25:43.909Z,22.48
2023-08-15T02:26:00.070Z,22.48
2023-08-15T02:26:16.228Z,22.45
2023-08-15T02:26:32.354Z,22.43
2023-08-15T02:26:48.528Z,22.4
2023-08-15T02:27:04.863Z,22.41
2023-08-15T02:27:21.042Z,22.4
2023-08-15T02:27:36.939Z,22.4
2023-08-15T02:27:53.157Z,22.41
2023-08-15T02:28:09.285Z,22.41
2023-08-15T02:28:25.376Z,22.39
2023-08-15T02:28:41.543Z,22.41
2023-08-15T02:28:57.673Z,22.41
2023-08-15T02:29:13.803Z,22.41
2023-08-15T02:29:29.975Z,22.41
2023-08-15T02:29:46.089Z,22.41
2023-08-15T02:30:02.324Z,22.39
2023-08-15T02:30:18.428Z,22.41
2023-08-15T02:30:34.524Z,22.39
2023-08-15T02:30:50.745Z,22.41
2023-08-15T02:31:06.840Z,22.4
2023-08-15T02:31:23.112Z,22.4
2023-08-15T02:31:39.178Z,22.37
2023-08-15T02:31:55.253Z,22.37
2023-08-15T02:32:11.422Z,22.36
2023-08-15T02:32:27.681Z,22.38
2023-08-15T02:32:43.712Z,22.37
2023-08-15T02:32:59.904Z,22.39
2023-08-15T02:33:16.011Z,22.4
2023-08-15T02:33:32.122Z,22.4
2023-08-15T02:33:48.270Z,22.4
2023-08-15T02:34:04.480Z,22.39
2023-08-15T02:34:20.604Z,22.39
2023-08-15T02:34:36.767Z,22.39
2023-08-15T02:34:52.854Z,22.4
2023-08-15T02:35:09.005Z,22.4
2023-08-15T02:35:25.149Z,22.4
2023-08-15T02:35:41.318Z,22.39
2023-08-15T02:35:57.469Z,22.4
2023-08-15T02:36:13.597Z,22.4
2023-08-15T02:36:29.796Z,22.39
2023-08-15T02:36:45.921Z,22.39
2023-08-15T02:37:02.060Z,22.39
2023-08-15T02:37:18.223Z,22.4
2023-08-15T02:37:34.353Z,22.41
2023-08-15T02:37:50.460Z,22.42
2023-08-15T02:38:06.600Z,22.42
2023-08-15T02:38:22.774Z,22.42
2023-08-15T02:38:38.925Z,22.42
2023-08-15T02:38:55.049Z,22.42
2023-08-15T02:39:11.232Z,22.43
2023-08-15T02:39:27.361Z,22.43
2023-08-15T02:39:43.482Z,22.44
2023-08-15T02:39:59.657Z,22.44
2023-08-15T02:40:15.777Z,22.44
2023-08-15T02:40:31.958Z,22.45
2023-08-15T02:40:48.062Z,22.45
2023-08-15T02:41:04.225Z,22.46
2023-08-15T02:41:20.365Z,22.47
2023-08-15T02:41:36.510Z,22.48
2023-08-15T02:41:52.646Z,22.48
2023-08-15T02:42:08.812Z,22.49
2023-08-15T02:42:24.990Z,22.5
2023-08-15T02:42:41.072Z,22.5
2023-08-15T02:42:57.264Z,22.51
2023-08-15T02:43:13.369Z,22.51
2023-08-15T02:43:29.524Z,22.51
2023-08-15T02:43:45.666Z,22.51
2023-08-15T02:44:01.828Z,22.51
2023-08-15T02:44:17.955Z,22.51
2023-08-15T02:44:34.095Z,22.51
2023-08-15T02:44:50.267Z,22.5
2023-08-15T02:45:06.405Z,22.5
2023-08-15T02:45:22.556Z,22.5
2023-08-15T02:45:38.684Z,22.51
2023-08-15T02:45:54.809Z,22.51
2023-08-15T02:46:10.994Z,22.52
2023-08-15T02:46:27.130Z,22.54
2023-08-15T02:46:43.297Z,22.54
2023-08-15T02:46:59.486Z,22.55
2023-08-15T02:47:15.558Z,22.56
2023-08-15T02:47:31.724Z,22.58
2023-08-15T02:47:47.925Z,22.59
2023-08-15T02:48:04.064Z,22.59
2023-08-15T02:48:20.122Z,22.59
2023-08-15T02:48:36.283Z,22.58
2023-08-15T02:48:52.418Z,22.58
2023-08-15T02:49:08.626Z,22.59
2023-08-15T02:49:24.736Z,22.59
2023-08-15T02:49:40.870Z,22.59
2023-08-15T02:49:57.005Z,22.59
2023-08-15T02:50:24.430Z,22.6
2023-08-15T02:50:40.628Z,22.56
2023-08-15T02:50:56.737Z,22.56
2023-08-15T02:51:12.880Z,22.55
2023-08-15T02:51:29.026Z,22.53
2023-08-15T02:51:45.191Z,22.53
2023-08-15T02:52:01.381Z,22.52
2023-08-15T02:52:17.474Z,22.52
2023-08-15T02:52:33.624Z,22.52
2023-08-15T02:52:49.786Z,22.52
2023-08-15T02:53:05.991Z,22.52
2023-08-15T02:53:22.072Z,22.51
2023-08-15T02:53:38.228Z,22.51
2023-08-15T02:53:54.352Z,22.51
2023-08-15T02:54:10.499Z,22.5
2023-08-15T02:54:26.624Z,22.5
2023-08-15T02:54:42.785Z,22.51
2023-08-15T02:54:58.933Z,22.51
2023-08-15T02:55:15.078Z,22.51
2023-08-15T02:55:31.244Z,22.52
2023-08-15T02:55:47.339Z,22.52
2023-08-15T02:56:03.506Z,22.54
2023-08-15T02:56:19.652Z,22.53
2023-08-15T02:56:35.774Z,22.52
2023-08-15T02:56:51.956Z,22.52
2023-08-15T02:57:08.083Z,22.51
2023-08-15T02:57:24.272Z,22.51
2023-08-15T02:57:40.372Z,22.51
2023-08-15T02:57:56.561Z,22.52
2023-08-15T02:58:12.676Z,22.52
2023-08-15T02:58:28.844Z,22.51
2023-08-15T02:58:44.954Z,22.5
2023-08-15T02:59:01.116Z,22.5
2023-08-15T02:59:17.281Z,22.48
2023-08-15T02:59:33.414Z,22.48
2023-08-15T02:59:49.539Z,22.48
2023-08-15T03:00:05.701Z,22.47
2023-08-15T03:00:21.866Z,22.46
2023-08-15T03:00:38.017Z,22.47
2023-08-15T03:00:54.229Z,22.47
2023-08-15T03:01:10.346Z,22.48
2023-08-15T03:01:26.416Z,22.48
2023-08-15T03:01:42.593Z,22.49
2023-08-15T03:01:58.791Z,22.5
2023-08-15T03:02:14.850Z,22.5
2023-08-15T03:02:31.080Z,22.5
2023-08-15T03:02:47.164Z,22.51
2023-08-15T03:03:03.310Z,22.51
2023-08-15T03:03:19.503Z,22.51
2023-08-15T03:03:35.633Z,22.51
2023-08-15T03:03:51.735Z,22.52
2023-08-15T03:04:07.867Z,22.52
2023-08-15T03:04:24.009Z,22.52
2023-08-15T03:04:40.181Z,22.53
2023-08-15T03:04:56.324Z,22.53
2023-08-15T03:05:12.463Z,22.53
2023-08-15T03:05:28.608Z,22.55
2023-08-15T03:05:44.757Z,22.55
2023-08-15T03:06:00.952Z,22.56
2023-08-15T03:06:17.030Z,22.57
2023-08-15T03:06:33.177Z,22.57
2023-08-15T03:06:49.344Z,22.57
2023-08-15T03:07:05.468Z,22.57
2023-08-15T03:07:21.959Z,22.56
2023-08-15T03:07:37.831Z,22.55
2023-08-15T03:07:53.904Z,22.54
2023-08-15T03:08:10.073Z,22.55
2023-08-15T03:08:26.205Z,22.55
2023-08-15T03:08:42.461Z,22.56
2023-08-15T03:08:58.499Z,22.52
2023-08-15T03:09:14.672Z,22.52
2023-08-15T03:09:30.826Z,22.51
2023-08-15T03:09:46.929Z,22.51
2023-08-15T03:10:03.144Z,22.51
2023-08-15T03:10:19.243Z,22.52
2023-08-15T03:10:35.377Z,22.52
2023-08-15T03:10:51.532Z,22.52
2023-08-15T03:11:07.664Z,22.52
2023-08-15T03:11:23.803Z,22.53
2023-08-15T03:11:39.950Z,22.53
2023-08-15T03:11:56.088Z,22.52
2023-08-15T03:12:12.281Z,22.5
2023-08-15T03:12:28.373Z,22.51
2023-08-15T03:12:44.605Z,22.5
2023-08-15T03:13:00.723Z,22.5
2023-08-15T03:13:16.811Z,22.5
2023-08-15T03:13:32.995Z,22.49
2023-08-15T03:13:49.178Z,22.5
2023-08-15T03:14:05.260Z,22.49
2023-08-15T03:14:21.434Z,22.49
2023-08-15T03:14:37.548Z,22.49
2023-08-15T03:14:53.688Z,22.49
2023-08-15T03:15:09.859Z,22.5
2023-08-15T03:15:26.002Z,22.49
2023-08-15T03:15:42.133Z,22.49
2023-08-15T03:15:58.286Z,22.5
2023-08-15T03:16:14.466Z,22.5
2023-08-15T03:16:30.662Z,22.49
2023-08-15T03:16:46.763Z,22.49
2023-08-15T03:17:02.845Z,22.48
2023-08-15T03:17:19.482Z,22.48
2023-08-15T03:17:35.199Z,22.47
2023-08-15T03:17:51.319Z,22.46
2023-08-15T03:18:07.748Z,22.45
2023-08-15T03:18:23.583Z,22.44
2023-08-15T03:18:39.721Z,22.43
2023-08-15T03:18:55.897Z,22.43
2023-08-15T03:19:12.010Z,22.43
2023-08-15T03:19:28.157Z,22.43
2023-08-15T03:19:44.344Z,22.44
2023-08-15T03:20:00.534Z,22.44
2023-08-15T03:20:16.620Z,22.45
2023-08-15T03:20:32.774Z,22.46
2023-08-15T03:20:48.907Z,22.46
2023-08-15T03:21:05.041Z,22.46
2023-08-15T03:21:21.190Z,22.46
2023-08-15T03:21:37.352Z,22.46
2023-08-15T03:21:53.493Z,22.47
2023-08-15T03:22:09.625Z,22.46
2023-08-15T03:22:25.804Z,22.46
2023-08-15T03:22:41.905Z,22.47
2023-08-15T03:22:58.081Z,22.47
2023-08-15T03:23:14.198Z,22.46
2023-08-15T03:23:30.364Z,22.47
2023-08-15T03:23:46.517Z,22.48
2023-08-15T03:24:02.658Z,22.49
2023-08-15T03:24:18.807Z,22.5
2023-08-15T03:24:35.028Z,22.5
2023-08-15T03:24:51.081Z,22.5
2023-08-15T03:25:07.232Z,22.51
2023-08-15T03:25:23.370Z,22.52
2023-08-15T03:25:39.496Z,22.52
2023-08-15T03:25:55.690Z,22.52
2023-08-15T03:26:11.820Z,22.52
2023-08-15T03:26:27.943Z,22.52
2023-08-15T03:26:44.092Z,22.52
2023-08-15T03:27:02.291Z,22.51
2023-08-15T03:27:16.432Z,22.5
2023-08-15T03:27:32.546Z,22.5
2023-08-15T03:27:48.720Z,22.51
2023-08-15T03:28:04.812Z,22.5
2023-08-15T03:28:20.974Z,22.51
2023-08-15T03:28:37.108Z,22.5
2023-08-15T03:28:53.268Z,22.5
2023-08-15T03:29:09.400Z,22.5
2023-08-15T03:29:25.563Z,22.5